createdAt,value
2023-04-09T00:01:40.321Z,4.84
2023-04-09T00:04:06.778Z,4.88
2023-04-09T00:06:33.206Z,4.80
2023-04-09T00:08:59.675Z,4.76
2023-04-09T00:11:26.112Z,4.69
2023-04-09T00:13:52.579Z,4.60
2023-04-09T00:16:19.241Z,4.58
2023-04-09T00:18:45.737Z,4.52
2023-04-09T00:21:12.603Z,4.44
2023-04-09T00:23:39.109Z,4.42
2023-04-09T00:26:05.511Z,4.45
2023-04-09T00:28:32.789Z,4.48
2023-04-09T00:30:59.221Z,4.45
2023-04-09T00:33:25.810Z,4.41
2023-04-09T00:35:52.371Z,4.34
2023-04-09T00:38:19.216Z,4.37
2023-04-09T00:40:49.639Z,4.40
2023-04-09T00:43:16.722Z,4.40
2023-04-09T00:45:44.045Z,4.46
2023-04-09T00:48:12.016Z,4.55
2023-04-09T00:50:38.526Z,4.59
2023-04-09T00:53:05.946Z,4.71
2023-04-09T00:55:32.950Z,4.69
2023-04-09T00:57:59.501Z,4.78
2023-04-09T01:00:27.587Z,4.75
2023-04-09T01:02:57.722Z,4.79
2023-04-09T01:05:31.585Z,4.85
2023-04-09T01:08:08.427Z,4.79
2023-04-09T01:10:43.116Z,4.82
2023-04-09T01:13:22.109Z,4.82
2023-04-09T01:15:53.901Z,4.88
2023-04-09T01:18:31.124Z,4.90
2023-04-09T01:21:09.580Z,4.89
2023-04-09T01:24:02.572Z,4.92
2023-04-09T01:27:03.931Z,5.06
2023-04-09T01:29:46.580Z,4.93
2023-04-09T01:32:16.746Z,4.95
2023-04-09T01:34:46.409Z,4.87
2023-04-09T01:37:15.730Z,4.85
2023-04-09T01:39:42.890Z,4.70
2023-04-09T01:42:13.125Z,4.71
2023-04-09T01:44:42.144Z,4.63
2023-04-09T01:47:09.167Z,4.60
2023-04-09T01:49:36.173Z,4.62
2023-04-09T01:52:03.181Z,4.60
2023-04-09T01:54:29.970Z,4.44
2023-04-09T01:56:58.151Z,4.41
2023-04-09T01:59:25.213Z,4.39
2023-04-09T02:02:01.279Z,4.39
2023-04-09T02:04:35.815Z,4.29
2023-04-09T02:07:07.924Z,4.30
2023-04-09T02:09:38.553Z,4.40
2023-04-09T02:12:10.636Z,4.23
2023-04-09T02:15:03.003Z,4.23
2023-04-09T02:17:30.023Z,4.26
2023-04-09T02:19:57.191Z,4.29
2023-04-09T02:22:23.641Z,4.36
2023-04-09T02:24:50.049Z,4.35
2023-04-09T02:27:17.048Z,4.30
2023-04-09T02:29:44.127Z,4.30
2023-04-09T02:32:13.326Z,4.39
2023-04-09T02:34:39.687Z,4.37
2023-04-09T02:37:06.083Z,4.40
2023-04-09T02:39:32.868Z,4.46
2023-04-09T02:41:59.290Z,4.45
2023-04-09T02:44:26.864Z,4.35
2023-04-09T02:46:53.724Z,4.33
2023-04-09T02:49:20.201Z,4.37
2023-04-09T02:51:47.036Z,4.38
2023-04-09T02:54:14.052Z,4.35
2023-04-09T02:56:40.479Z,4.31
2023-04-09T02:59:07.059Z,4.27
2023-04-09T03:01:34.136Z,4.27
2023-04-09T03:04:01.757Z,4.25
2023-04-09T03:06:28.537Z,4.12
2023-04-09T03:08:55.020Z,4.10
2023-04-09T03:11:21.488Z,4.11
2023-04-09T03:13:48.072Z,4.17
2023-04-09T03:16:15.081Z,4.06
2023-04-09T03:18:42.156Z,3.95
2023-04-09T03:21:09.239Z,3.96
2023-04-09T03:23:43.769Z,3.91
2023-04-09T03:26:10.576Z,3.88
2023-04-09T03:28:45.975Z,3.94
2023-04-09T03:31:14.305Z,3.94
2023-04-09T03:33:43.309Z,3.94
2023-04-09T03:36:10.690Z,3.88
2023-04-09T03:39:00.279Z,3.84
2023-04-09T03:41:32.711Z,3.80
2023-04-09T03:44:03.155Z,3.81
2023-04-09T03:46:36.249Z,3.88
2023-04-09T03:49:03.870Z,3.73
2023-04-09T03:51:38.638Z,3.61
2023-04-09T03:54:05.158Z,3.71
2023-04-09T03:56:32.891Z,3.65
2023-04-09T03:59:00.108Z,3.69
2023-04-09T04:01:35.423Z,3.61
2023-04-09T04:04:02.341Z,3.65
2023-04-09T04:06:35.600Z,3.58
2023-04-09T04:09:12.235Z,3.48
2023-04-09T04:11:44.141Z,3.41
2023-04-09T04:14:11.076Z,3.41
2023-04-09T04:16:43.696Z,3.37
2023-04-09T04:19:13.278Z,3.41
2023-04-09T04:21:45.314Z,3.36
2023-04-09T04:24:12.041Z,3.46
2023-04-09T04:26:40.165Z,3.41
2023-04-09T04:29:07.541Z,3.41
2023-04-09T04:31:55.627Z,3.48
2023-04-09T04:34:24.983Z,3.52
2023-04-09T04:37:00.151Z,3.49
2023-04-09T04:39:31.692Z,3.49
2023-04-09T04:42:06.023Z,3.49
2023-04-09T04:44:32.924Z,3.50
2023-04-09T04:47:09.505Z,3.47
2023-04-09T04:49:36.094Z,3.46
2023-04-09T04:52:05.575Z,3.52
2023-04-09T04:54:33.932Z,3.55
2023-04-09T04:57:01.140Z,3.58
2023-04-09T04:59:40.615Z,3.57
2023-04-09T05:02:09.658Z,3.56
2023-04-09T05:04:46.777Z,3.47
2023-04-09T05:07:16.845Z,3.44
2023-04-09T05:09:49.890Z,3.40
2023-04-09T05:12:17.879Z,3.42
2023-04-09T05:14:48.569Z,3.37
2023-04-09T05:17:15.895Z,3.22
2023-04-09T05:19:45.135Z,3.25
2023-04-09T05:22:13.614Z,3.24
2023-04-09T05:24:40.030Z,3.26
2023-04-09T05:27:06.530Z,3.39
2023-04-09T05:29:32.980Z,3.30
2023-04-09T05:32:00.649Z,3.36
2023-04-09T05:34:31.838Z,3.41
2023-04-09T05:36:59.160Z,3.45
2023-04-09T05:39:26.090Z,3.50
2023-04-09T05:41:53.041Z,3.58
2023-04-09T05:44:31.708Z,3.62
2023-04-09T05:47:08.906Z,3.63
2023-04-09T05:49:41.793Z,3.68
2023-04-09T05:52:12.615Z,3.74
2023-04-09T05:54:41.020Z,3.59
2023-04-09T05:57:09.250Z,3.53
2023-04-09T05:59:38.380Z,3.69
2023-04-09T06:02:05.071Z,3.69
2023-04-09T06:04:32.968Z,3.75
2023-04-09T06:07:00.430Z,3.70
2023-04-09T06:09:27.875Z,3.62
2023-04-09T06:11:54.310Z,3.70
2023-04-09T06:14:21.003Z,3.69
2023-04-09T06:16:47.402Z,3.70
2023-04-09T06:19:16.219Z,3.80
2023-04-09T06:21:43.325Z,3.79
2023-04-09T06:24:09.726Z,3.71
2023-04-09T06:26:36.511Z,3.62
2023-04-09T06:29:03.293Z,3.58
2023-04-09T06:31:29.949Z,3.66
2023-04-09T06:33:56.767Z,3.58
2023-04-09T06:36:23.268Z,3.62
2023-04-09T06:38:49.670Z,3.52
2023-04-09T06:41:16.196Z,3.37
2023-04-09T06:43:43.221Z,3.43
2023-04-09T06:46:09.695Z,3.59
2023-04-09T06:48:36.417Z,3.52
2023-04-09T06:51:02.927Z,3.67
2023-04-09T06:53:30.164Z,3.90
2023-04-09T06:55:57.282Z,3.87
2023-04-09T06:58:23.770Z,3.92
2023-04-09T07:00:50.254Z,4.04
2023-04-09T07:03:17.108Z,4.00
2023-04-09T07:05:44.269Z,3.91
2023-04-09T07:08:11.901Z,3.83
2023-04-09T07:10:38.663Z,3.89
2023-04-09T07:13:05.321Z,4.04
2023-04-09T07:15:31.944Z,4.10
2023-04-09T07:17:58.351Z,4.26
2023-04-09T07:20:24.793Z,4.32
2023-04-09T07:22:51.262Z,4.35
2023-04-09T07:25:17.751Z,4.48
2023-04-09T07:27:44.482Z,4.56
2023-04-09T07:30:11.167Z,4.72
2023-04-09T07:32:38.084Z,4.88
2023-04-09T07:35:07.873Z,4.91
2023-04-09T07:37:34.269Z,5.04
2023-04-09T07:40:01.590Z,5.08
2023-04-09T07:42:28.257Z,5.10
2023-04-09T07:44:55.065Z,5.20
2023-04-09T07:47:21.650Z,5.28
2023-04-09T07:49:48.161Z,5.28
2023-04-09T07:52:15.454Z,5.37
2023-04-09T07:54:42.250Z,5.56
2023-04-09T07:57:08.660Z,5.63
2023-04-09T07:59:36.227Z,5.70
2023-04-09T08:02:03.763Z,5.72
2023-04-09T08:04:31.976Z,5.92
2023-04-09T08:06:58.443Z,5.92
2023-04-09T08:09:24.872Z,6.05
2023-04-09T08:11:51.409Z,6.16
2023-04-09T08:14:18.565Z,6.23
2023-04-09T08:17:10.178Z,6.22
2023-04-09T08:19:36.668Z,6.14
2023-04-09T08:22:03.143Z,6.19
2023-04-09T08:24:30.112Z,6.38
2023-04-09T08:26:57.622Z,6.37
2023-04-09T08:29:24.059Z,6.49
2023-04-09T08:31:50.588Z,6.66
2023-04-09T08:34:20.930Z,6.67
2023-04-09T08:36:50.644Z,6.65
2023-04-09T08:39:20.665Z,6.71
2023-04-09T08:41:48.314Z,6.69
2023-04-09T08:44:15.482Z,6.78
2023-04-09T08:46:43.579Z,6.54
2023-04-09T08:49:10.956Z,6.60
2023-04-09T08:51:37.526Z,6.71
2023-04-09T08:54:27.216Z,6.85
2023-04-09T08:56:50.985Z,6.86
2023-04-09T08:59:18.764Z,6.68
2023-04-09T09:01:47.884Z,6.78
2023-04-09T09:04:14.747Z,6.98
2023-04-09T09:06:42.404Z,6.92
2023-04-09T09:09:14.764Z,7.02
2023-04-09T09:11:43.909Z,7.21
2023-04-09T09:14:14.711Z,7.30
2023-04-09T09:16:43.894Z,7.35
2023-04-09T09:19:30.987Z,7.41
2023-04-09T09:21:58.002Z,7.56
2023-04-09T09:24:24.508Z,7.70
2023-04-09T09:26:52.431Z,7.71
2023-04-09T09:29:20.033Z,7.71
2023-04-09T09:31:51.739Z,7.85
2023-04-09T09:34:22.362Z,7.88
2023-04-09T09:36:49.039Z,7.86
2023-04-09T09:39:17.406Z,7.92
2023-04-09T09:42:06.509Z,8.01
2023-04-09T09:44:33.615Z,8.10
2023-04-09T09:47:03.443Z,8.11
2023-04-09T09:49:29.929Z,8.21
2023-04-09T09:51:59.425Z,8.07
2023-04-09T09:54:28.149Z,8.21
2023-04-09T09:57:02.011Z,8.24
2023-04-09T09:59:34.291Z,8.13
2023-04-09T10:02:05.879Z,8.25
2023-04-09T10:04:37.893Z,8.29
2023-04-09T10:07:05.841Z,8.43
2023-04-09T10:09:37.633Z,8.53
2023-04-09T10:12:07.144Z,8.65
2023-04-09T10:14:37.263Z,8.71
2023-04-09T10:17:04.835Z,8.87
2023-04-09T10:19:35.665Z,9.01
2023-04-09T10:22:11.501Z,9.02
2023-04-09T10:24:42.515Z,9.00
2023-04-09T10:27:12.117Z,9.09
2023-04-09T10:29:47.922Z,9.29
2023-04-09T10:32:26.565Z,9.38
2023-04-09T10:34:57.151Z,9.48
2023-04-09T10:37:25.355Z,9.60
2023-04-09T10:39:52.732Z,9.67
2023-04-09T10:42:49.051Z,9.82
2023-04-09T10:45:16.792Z,10.11
2023-04-09T10:47:44.642Z,10.29
2023-04-09T10:50:24.414Z,10.06
2023-04-09T10:53:00.118Z,10.29
2023-04-09T10:55:40.962Z,10.27
2023-04-09T10:58:12.357Z,10.09
2023-04-09T11:00:45.076Z,10.26
2023-04-09T11:03:30.485Z,10.45
2023-04-09T11:06:09.328Z,10.86
2023-04-09T11:08:37.932Z,10.89
2023-04-09T11:11:04.508Z,11.18
2023-04-09T11:13:32.059Z,11.31
2023-04-09T11:16:00.521Z,11.43
2023-04-09T11:18:29.853Z,11.40
2023-04-09T11:20:58.429Z,11.50
2023-04-09T11:23:25.283Z,11.30
2023-04-09T11:25:53.066Z,11.36
2023-04-09T11:28:20.637Z,11.49
2023-04-09T11:30:47.610Z,11.75
2023-04-09T11:33:15.625Z,11.72
2023-04-09T11:35:43.893Z,11.77
2023-04-09T11:38:11.600Z,11.97
2023-04-09T11:40:48.284Z,12.02
2023-04-09T11:43:16.536Z,11.80
2023-04-09T11:45:44.786Z,11.63
2023-04-09T11:48:13.632Z,12.03
2023-04-09T11:50:40.608Z,12.30
2023-04-09T11:53:20.612Z,12.73
2023-04-09T11:55:50.279Z,13.01
2023-04-09T11:58:17.427Z,12.68
2023-04-09T12:00:44.195Z,12.39
2023-04-09T12:03:11.742Z,12.33
2023-04-09T12:05:41.060Z,12.41
2023-04-09T12:08:09.269Z,12.64
2023-04-09T12:10:37.470Z,12.16
2023-04-09T12:13:05.949Z,12.10
2023-04-09T12:15:41.848Z,11.99
2023-04-09T12:18:10.749Z,11.82
2023-04-09T12:20:42.605Z,11.84
2023-04-09T12:23:11.034Z,11.64
2023-04-09T12:25:39.023Z,11.35
2023-04-09T12:28:07.366Z,11.00
2023-04-09T12:30:35.226Z,11.07
2023-04-09T12:33:03.367Z,10.91
2023-04-09T12:35:30.423Z,11.06
2023-04-09T12:37:59.110Z,10.99
2023-04-09T12:40:25.580Z,11.12
2023-04-09T12:42:52.076Z,11.35
2023-04-09T12:45:20.086Z,11.22
2023-04-09T12:47:46.710Z,11.30
2023-04-09T12:50:16.099Z,11.21
2023-04-09T12:52:44.875Z,11.05
2023-04-09T12:55:12.875Z,11.16
2023-04-09T12:57:41.539Z,11.25
2023-04-09T13:00:08.917Z,11.24
2023-04-09T13:02:35.753Z,11.17
2023-04-09T13:05:03.081Z,11.03
2023-04-09T13:07:37.040Z,11.23
2023-04-09T13:10:03.731Z,11.23
2023-04-09T13:12:32.331Z,11.60
2023-04-09T13:14:59.206Z,11.83
2023-04-09T13:17:25.936Z,11.65
2023-04-09T13:19:52.705Z,11.59
2023-04-09T13:22:19.295Z,11.45
2023-04-09T13:24:46.182Z,11.60
2023-04-09T13:27:12.859Z,11.58
2023-04-09T13:29:39.256Z,11.77
2023-04-09T13:32:07.442Z,12.01
2023-04-09T13:34:35.314Z,12.57
2023-04-09T13:37:04.968Z,12.77
2023-04-09T13:39:32.094Z,12.60
2023-04-09T13:41:59.028Z,12.78
2023-04-09T13:44:25.506Z,12.76
2023-04-09T13:46:52.345Z,12.72
2023-04-09T13:49:19.020Z,12.32
2023-04-09T13:51:46.554Z,12.14
2023-04-09T13:54:14.061Z,11.89
2023-04-09T13:56:40.549Z,11.64
2023-04-09T13:59:07.288Z,11.59
2023-04-09T14:01:34.689Z,12.10
2023-04-09T14:04:01.458Z,12.33
2023-04-09T14:06:28.012Z,12.39
2023-04-09T14:08:54.627Z,12.33
2023-04-09T14:11:21.326Z,12.38
2023-04-09T14:13:48.296Z,11.96
2023-04-09T14:16:15.070Z,11.78
2023-04-09T14:18:41.617Z,11.94
2023-04-09T14:21:09.979Z,11.90
2023-04-09T14:23:37.154Z,11.91
2023-04-09T14:26:04.335Z,11.83
2023-04-09T14:28:32.115Z,12.07
2023-04-09T14:30:59.393Z,12.04
2023-04-09T14:33:26.645Z,12.22
2023-04-09T14:35:53.074Z,12.48
2023-04-09T14:38:19.980Z,12.54
2023-04-09T14:41:11.356Z,12.17
2023-04-09T14:43:37.823Z,12.40
2023-04-09T14:46:06.274Z,12.53
2023-04-09T14:48:33.359Z,12.59
2023-04-09T14:50:59.745Z,12.72
2023-04-09T14:53:26.175Z,12.49
2023-04-09T14:55:52.581Z,12.72
2023-04-09T14:58:19.242Z,12.68
2023-04-09T15:00:45.946Z,12.69
2023-04-09T15:03:13.181Z,12.41
2023-04-09T15:05:40.101Z,12.38
2023-04-09T15:08:06.579Z,12.17
2023-04-09T15:10:33.354Z,12.08
2023-04-09T15:12:59.755Z,12.17
2023-04-09T15:15:26.758Z,12.35
2023-04-09T15:17:53.225Z,12.52
2023-04-09T15:20:20.155Z,12.46
2023-04-09T15:22:46.640Z,12.20
2023-04-09T15:25:17.611Z,12.39
2023-04-09T15:27:44.925Z,12.34
2023-04-09T15:30:11.436Z,12.38
2023-04-09T15:32:37.832Z,12.36
2023-04-09T15:35:04.593Z,12.37
2023-04-09T15:37:31.973Z,12.33
2023-04-09T15:39:58.470Z,12.42
2023-04-09T15:42:25.691Z,12.49
2023-04-09T15:44:52.360Z,12.40
2023-04-09T15:47:19.179Z,12.24
2023-04-09T15:49:46.266Z,12.33
2023-04-09T15:52:14.091Z,12.43
2023-04-09T15:54:40.586Z,12.38
2023-04-09T15:57:06.971Z,12.41
2023-04-09T15:59:33.434Z,12.45
2023-04-09T16:02:00.053Z,12.52
2023-04-09T16:04:27.405Z,12.50
2023-04-09T16:06:55.347Z,12.57
2023-04-09T16:09:22.343Z,12.64
2023-04-09T16:11:48.870Z,12.56
2023-04-09T16:14:15.782Z,12.47
2023-04-09T16:16:46.943Z,12.46
2023-04-09T16:19:14.070Z,12.30
2023-04-09T16:21:43.913Z,12.40
2023-04-09T16:24:12.943Z,12.40
2023-04-09T16:26:44.228Z,12.30
2023-04-09T16:29:11.041Z,12.25
2023-04-09T16:31:42.183Z,12.18
2023-04-09T16:34:09.318Z,12.22
2023-04-09T16:36:37.018Z,12.04
2023-04-09T16:39:04.712Z,11.89
2023-04-09T16:41:33.566Z,11.85
2023-04-09T16:44:01.617Z,11.89
2023-04-09T16:46:28.161Z,11.87
2023-04-09T16:48:54.757Z,11.84
2023-04-09T16:51:21.326Z,11.77
2023-04-09T16:53:47.883Z,11.63
2023-04-09T16:56:15.035Z,11.62
2023-04-09T16:58:41.528Z,11.52
2023-04-09T17:01:07.938Z,11.45
2023-04-09T17:03:38.098Z,11.44
2023-04-09T17:06:04.944Z,11.50
2023-04-09T17:08:35.667Z,11.50
2023-04-09T17:11:02.554Z,11.49
2023-04-09T17:13:31.594Z,11.44
2023-04-09T17:15:58.313Z,11.43
2023-04-09T17:18:24.846Z,11.38
2023-04-09T17:20:51.945Z,11.36
2023-04-09T17:23:22.866Z,11.31
2023-04-09T17:25:49.339Z,11.30
2023-04-09T17:28:18.705Z,11.25
2023-04-09T17:30:47.235Z,11.22
2023-04-09T17:33:13.930Z,11.31
2023-04-09T17:35:41.946Z,11.25
2023-04-09T17:38:08.377Z,11.18
2023-04-09T17:40:34.821Z,11.11
2023-04-09T17:43:02.429Z,11.00
2023-04-09T17:45:28.922Z,10.96
2023-04-09T17:47:55.500Z,10.89
2023-04-09T17:50:21.981Z,10.89
2023-04-09T17:52:48.506Z,10.80
2023-04-09T17:55:15.323Z,10.69
2023-04-09T17:57:43.091Z,10.63
2023-04-09T18:00:11.014Z,10.57
2023-04-09T18:02:46.090Z,10.49
2023-04-09T18:05:13.004Z,10.42
2023-04-09T18:07:40.051Z,10.35
2023-04-09T18:10:06.793Z,10.30
2023-04-09T18:12:33.299Z,10.25
2023-04-09T18:14:59.690Z,10.18
2023-04-09T18:17:27.623Z,10.11
2023-04-09T18:19:55.029Z,10.09
2023-04-09T18:22:21.757Z,9.99
2023-04-09T18:24:48.360Z,9.89
2023-04-09T18:27:16.316Z,9.80
2023-04-09T18:29:50.287Z,9.73
2023-04-09T18:32:19.586Z,9.67
2023-04-09T18:34:47.842Z,9.64
2023-04-09T18:37:15.175Z,9.60
2023-04-09T18:39:41.647Z,9.55
2023-04-09T18:42:08.116Z,9.54
2023-04-09T18:44:36.283Z,9.46
2023-04-09T18:47:05.375Z,9.40
2023-04-09T18:49:38.101Z,9.37
2023-04-09T18:52:09.064Z,9.31
2023-04-09T18:54:37.019Z,9.26
2023-04-09T18:57:06.798Z,9.23
2023-04-09T18:59:34.787Z,9.17
2023-04-09T19:02:04.769Z,9.14
2023-04-09T19:04:36.749Z,9.02
2023-04-09T19:07:03.664Z,8.93
2023-04-09T19:09:31.466Z,8.90
2023-04-09T19:11:58.753Z,8.87
2023-04-09T19:14:26.450Z,8.84
2023-04-09T19:16:53.193Z,8.81
2023-04-09T19:19:19.702Z,8.76
2023-04-09T19:21:46.803Z,8.69
2023-04-09T19:24:13.743Z,8.60
2023-04-09T19:26:40.346Z,8.47
2023-04-09T19:29:07.114Z,8.34
2023-04-09T19:31:36.923Z,8.24
2023-04-09T19:34:05.913Z,8.13
2023-04-09T19:36:34.443Z,8.02
2023-04-09T19:39:01.085Z,8.00
2023-04-09T19:41:27.954Z,7.93
2023-04-09T19:43:54.677Z,7.87
2023-04-09T19:46:21.086Z,7.76
2023-04-09T19:48:48.103Z,7.69
2023-04-09T19:51:21.983Z,7.58
2023-04-09T19:53:49.421Z,7.51
2023-04-09T19:56:16.305Z,7.43
2023-04-09T19:58:44.344Z,7.38
2023-04-09T20:01:11.251Z,7.37
2023-04-09T20:03:39.239Z,7.36
2023-04-09T20:06:10.112Z,7.28
2023-04-09T20:08:37.732Z,7.16
2023-04-09T20:11:04.469Z,7.06
2023-04-09T20:13:32.027Z,7.03
2023-04-09T20:15:58.658Z,6.97
2023-04-09T20:18:25.504Z,6.94
2023-04-09T20:20:52.038Z,6.91
2023-04-09T20:23:18.464Z,6.88
2023-04-09T20:25:45.492Z,6.89
2023-04-09T20:28:12.056Z,6.88
2023-04-09T20:30:38.497Z,6.87
2023-04-09T20:33:05.007Z,6.83
2023-04-09T20:35:35.380Z,6.79
2023-04-09T20:38:03.126Z,6.71
2023-04-09T20:40:31.108Z,6.69
2023-04-09T20:42:57.513Z,6.68
2023-04-09T20:45:23.916Z,6.67
2023-04-09T20:47:50.940Z,6.67
2023-04-09T20:50:19.441Z,6.67
2023-04-09T20:52:45.873Z,6.59
2023-04-09T20:55:12.311Z,6.52
2023-04-09T20:57:39.042Z,6.46
2023-04-09T21:00:06.166Z,6.44
2023-04-09T21:02:33.193Z,6.41
2023-04-09T21:05:05.479Z,6.36
2023-04-09T21:07:41.713Z,6.29
2023-04-09T21:10:08.694Z,6.32
2023-04-09T21:12:35.253Z,6.32
2023-04-09T21:15:02.609Z,6.28
2023-04-09T21:17:29.386Z,6.29
2023-04-09T21:19:56.611Z,6.27
2023-04-09T21:22:23.922Z,6.24
2023-04-09T21:24:54.053Z,6.21
2023-04-09T21:27:20.758Z,6.19
2023-04-09T21:29:47.171Z,6.12
2023-04-09T21:32:15.501Z,6.04
2023-04-09T21:34:42.214Z,5.93
2023-04-09T21:37:08.636Z,5.89
2023-04-09T21:39:35.526Z,5.81
2023-04-09T21:42:02.759Z,5.80
2023-04-09T21:44:30.140Z,5.77
2023-04-09T21:46:56.534Z,5.75
2023-04-09T21:49:23.038Z,5.70
2023-04-09T21:51:49.491Z,5.68
2023-04-09T21:54:16.266Z,5.72
2023-04-09T21:56:42.876Z,5.70
2023-04-09T21:59:09.671Z,5.77
2023-04-09T22:01:36.248Z,5.84
2023-04-09T22:04:02.997Z,5.80
2023-04-09T22:06:29.956Z,5.68
2023-04-09T22:08:58.025Z,5.61
2023-04-09T22:11:29.493Z,5.48
2023-04-09T22:13:57.308Z,5.42
2023-04-09T22:16:25.286Z,5.48
2023-04-09T22:18:52.592Z,5.49
2023-04-09T22:21:19.265Z,5.47
2023-04-09T22:23:46.154Z,5.40
2023-04-09T22:26:13.011Z,5.35
2023-04-09T22:28:39.603Z,5.28
2023-04-09T22:31:06.355Z,5.25
2023-04-09T22:33:33.485Z,5.24
2023-04-09T22:36:00.035Z,5.29
2023-04-09T22:38:28.013Z,5.34
2023-04-09T22:40:54.544Z,5.40
2023-04-09T22:43:21.177Z,5.46
2023-04-09T22:45:52.204Z,5.47
2023-04-09T22:48:19.632Z,5.48
2023-04-09T22:50:47.166Z,5.50
2023-04-09T22:53:21.196Z,5.47
2023-04-09T22:55:51.010Z,5.56
2023-04-09T22:58:18.258Z,5.60
2023-04-09T23:00:45.495Z,5.63
2023-04-09T23:03:12.294Z,5.59
2023-04-09T23:05:39.346Z,5.62
2023-04-09T23:08:06.334Z,5.63
2023-04-09T23:10:34.496Z,5.63
2023-04-09T23:13:01.097Z,5.57
2023-04-09T23:15:28.205Z,5.50
2023-04-09T23:17:54.685Z,5.44
2023-04-09T23:20:46.780Z,5.34
2023-04-09T23:23:13.531Z,5.32
2023-04-09T23:25:40.059Z,5.29
2023-04-09T23:28:06.485Z,5.25
2023-04-09T23:30:33.397Z,5.17
2023-04-09T23:32:59.867Z,5.04
2023-04-09T23:35:26.513Z,4.94
2023-04-09T23:37:53.042Z,4.88
2023-04-09T23:40:19.797Z,4.81
2023-04-09T23:42:48.084Z,4.70
2023-04-09T23:45:15.514Z,4.64
2023-04-09T23:47:42.309Z,4.59
2023-04-09T23:50:09.232Z,4.52
2023-04-09T23:52:38.686Z,4.47
2023-04-09T23:55:08.706Z,4.49
2023-04-09T23:57:35.388Z,4.48
